Time;durP1;ratioP1;P1;durP2;ratioP2;P2;SDS_P1;SDS_P2;PMS_P1;PMS_P2;Temp;Humidity;BMP_temperature;BMP_pressure;BME280_temperature;BME280_humidity;BME280_pressure;Samples;Min_cycle;Max_cycle;Signal;HPM_P1;HPM_P2
2021/11/15 00:01:05;;;;;;;29.90;17.10;;;8.60;99.90;;;;;;6229792;28;20555;-63
2021/11/15 00:04:08;;;;;;;35.03;17.40;;;8.60;99.90;;;;;;6229912;28;20477;-65
2021/11/15 00:07:11;;;;;;;25.40;14.57;;;8.60;99.90;;;;;;6229989;28;20498;-64
2021/11/15 00:10:17;;;;;;;32.67;16.30;;;8.60;99.90;;;;;;6233408;28;20480;-64
2021/11/15 00:13:20;;;;;;;26.37;14.83;;;8.60;99.90;;;;;;6229873;28;20483;-65
2021/11/15 00:16:24;;;;;;;29.57;16.20;;;8.60;99.90;;;;;;6229990;28;20472;-64
2021/11/15 00:19:27;;;;;;;36.83;17.80;;;8.50;99.90;;;;;;6229498;28;20923;-63
2021/11/15 00:22:30;;;;;;;30.70;14.33;;;8.50;99.90;;;;;;6229037;28;20475;-65
2021/11/15 00:25:35;;;;;;;32.10;17.00;;;8.50;99.90;;;;;;6228315;28;20487;-66
2021/11/15 00:28:39;;;;;;;31.17;15.13;;;8.50;99.90;;;;;;6231836;28;20451;-65
2021/11/15 00:31:44;;;;;;;34.00;15.67;;;8.50;99.90;;;;;;6251927;28;20486;-65
2021/11/15 00:34:47;;;;;;;26.40;15.17;;;8.50;99.90;;;;;;6252171;28;20529;-65
2021/11/15 00:37:51;;;;;;;32.23;16.50;;;8.50;99.90;;;;;;6253001;28;20481;-65
2021/11/15 00:40:55;;;;;;;35.23;16.03;;;8.50;99.90;;;;;;6253378;28;20474;-68
2021/11/15 00:43:59;;;;;;;35.20;16.27;;;8.60;99.90;;;;;;6250714;28;20467;-63
2021/11/15 00:47:03;;;;;;;36.47;16.43;;;8.60;99.90;;;;;;6252738;28;21017;-63
2021/11/15 00:50:10;;;;;;;35.07;16.63;;;8.50;99.90;;;;;;6253271;28;20485;-64
2021/11/15 00:53:16;;;;;;;38.80;17.13;;;8.50;99.90;;;;;;6253328;28;20474;-62
2021/11/15 00:56:21;;;;;;;35.37;15.20;;;8.60;99.90;;;;;;6252765;28;20478;-63
2021/11/15 00:59:24;;;;;;;32.07;16.30;;;8.60;99.90;;;;;;6253251;28;20474;-63
2021/11/15 01:02:27;;;;;;;31.80;15.93;;;8.60;99.90;;;;;;6252294;28;20475;-63
2021/11/15 01:05:30;;;;;;;39.40;17.13;;;8.60;99.90;;;;;;6252232;28;20486;-64
2021/11/15 01:08:34;;;;;;;34.80;15.57;;;8.60;99.90;;;;;;6251344;28;20475;-63
2021/11/15 01:11:38;;;;;;;30.43;15.63;;;8.60;99.90;;;;;;6253772;28;20473;-63
2021/11/15 01:14:42;;;;;;;36.33;15.27;;;8.60;99.90;;;;;;6251588;28;20829;-64
2021/11/15 01:17:45;;;;;;;26.73;15.07;;;8.60;99.90;;;;;;6251900;28;20472;-64
2021/11/15 01:20:48;;;;;;;27.87;14.87;;;8.60;99.90;;;;;;6251994;28;20521;-63
2021/11/15 01:23:52;;;;;;;28.57;14.40;;;8.60;99.90;;;;;;6252864;28;20475;-63
2021/11/15 01:26:56;;;;;;;27.47;15.70;;;8.60;99.90;;;;;;6252090;28;20554;-63
2021/11/15 01:29:59;;;;;;;28.67;14.00;;;8.60;99.90;;;;;;6252407;28;20475;-63
2021/11/15 01:33:04;;;;;;;34.97;16.20;;;8.60;99.90;;;;;;6252317;28;20851;-63
2021/11/15 01:36:07;;;;;;;32.20;15.77;;;8.60;99.90;;;;;;6249330;28;20471;-63
2021/11/15 01:39:10;;;;;;;27.93;14.10;;;8.60;99.90;;;;;;6252696;28;20471;-63
2021/11/15 01:42:15;;;;;;;31.23;14.50;;;8.60;99.90;;;;;;6252630;28;20478;-63
2021/11/15 01:45:24;;;;;;;29.93;14.70;;;8.60;99.90;;;;;;6252453;28;20467;-63
2021/11/15 01:48:27;;;;;;;23.30;14.73;;;8.60;99.90;;;;;;6252500;28;20486;-63
2021/11/15 01:51:30;;;;;;;29.87;15.50;;;8.50;99.90;;;;;;6252714;28;20463;-63
2021/11/15 01:54:34;;;;;;;24.30;13.57;;;8.50;99.90;;;;;;6252027;28;20467;-63
2021/11/15 01:57:39;;;;;;;25.10;13.43;;;8.60;99.90;;;;;;6251942;28;20978;-63
2021/11/15 02:00:44;;;;;;;22.20;13.53;;;8.60;99.90;;;;;;6252068;28;20475;-63
2021/11/15 02:03:47;;;;;;;24.13;14.80;;;8.60;99.90;;;;;;6251959;28;20613;-63
2021/11/15 02:06:51;;;;;;;20.47;13.60;;;8.60;99.90;;;;;;6251953;28;20815;-63
2021/11/15 02:09:54;;;;;;;25.77;14.30;;;8.60;99.90;;;;;;6251634;28;20471;-63
2021/11/15 02:13:00;;;;;;;18.90;12.73;;;8.60;99.90;;;;;;6251689;28;20524;-63
2021/11/15 02:16:03;;;;;;;21.20;12.80;;;8.60;99.90;;;;;;6251882;28;20486;-63
2021/11/15 02:19:06;;;;;;;14.60;11.50;;;8.60;99.90;;;;;;6251840;28;20550;-63
2021/11/15 02:22:11;;;;;;;20.43;12.90;;;8.50;99.90;;;;;;6251373;28;20954;-63
2021/11/15 02:25:16;;;;;;;19.60;12.07;;;8.60;99.90;;;;;;6251134;28;20478;-63
2021/11/15 02:28:24;;;;;;;19.60;13.10;;;8.60;99.90;;;;;;6251126;28;20474;-63
2021/11/15 02:31:28;;;;;;;18.03;12.70;;;8.60;99.90;;;;;;6251133;28;20463;-64
2021/11/15 02:34:32;;;;;;;19.63;12.47;;;8.60;99.90;;;;;;6251452;28;20450;-64
2021/11/15 02:37:36;;;;;;;16.97;11.60;;;8.60;99.90;;;;;;6251534;28;20470;-65
2021/11/15 02:40:40;;;;;;;17.03;11.83;;;8.60;99.90;;;;;;6241729;28;20899;-64
2021/11/15 02:43:43;;;;;;;14.23;11.97;;;8.50;99.90;;;;;;6250730;28;20839;-64
2021/11/15 02:46:46;;;;;;;19.17;13.23;;;8.50;99.90;;;;;;6250735;28;20962;-64
2021/11/15 02:49:49;;;;;;;16.20;11.23;;;8.50;99.90;;;;;;6251018;28;20474;-64
2021/11/15 02:52:56;;;;;;;18.07;12.20;;;8.60;99.90;;;;;;6250715;28;20812;-64
2021/11/15 02:56:00;;;;;;;16.50;12.07;;;8.60;99.90;;;;;;6251286;28;20498;-63
2021/11/15 02:59:03;;;;;;;24.10;12.33;;;8.60;99.90;;;;;;6250405;28;20533;-63
2021/11/15 03:02:07;;;;;;;12.50;11.03;;;8.50;99.90;;;;;;6250921;28;20486;-63
2021/11/15 03:05:10;;;;;;;16.60;12.53;;;8.50;99.90;;;;;;6250723;28;20529;-63
2021/11/15 03:08:16;;;;;;;21.93;13.90;;;8.60;99.90;;;;;;6251161;28;20480;-63
2021/11/15 03:11:19;;;;;;;20.57;12.93;;;8.60;99.90;;;;;;6250967;28;20478;-63
2021/11/15 03:14:23;;;;;;;20.90;13.43;;;8.60;99.90;;;;;;6250436;28;20477;-62
2021/11/15 03:17:26;;;;;;;20.27;13.23;;;8.60;99.90;;;;;;6250449;28;20475;-63
2021/11/15 03:20:31;;;;;;;21.17;13.50;;;8.60;99.90;;;;;;6250040;28;20959;-63
2021/11/15 03:23:38;;;;;;;25.73;14.70;;;8.50;99.90;;;;;;6250381;28;20554;-63
2021/11/15 03:26:42;;;;;;;19.93;13.27;;;8.50;99.90;;;;;;6249855;28;20474;-63
2021/11/15 03:29:45;;;;;;;18.43;13.13;;;8.60;99.90;;;;;;6250525;28;20479;-63
2021/11/15 03:32:50;;;;;;;22.67;14.20;;;8.50;99.90;;;;;;6249181;28;20469;-63
2021/11/15 03:35:53;;;;;;;18.47;13.60;;;8.50;99.90;;;;;;6250712;28;20481;-63
2021/11/15 03:38:59;;;;;;;24.83;13.80;;;8.50;99.90;;;;;;6250054;28;20529;-63
2021/11/15 03:42:02;;;;;;;28.17;15.30;;;8.50;99.90;;;;;;6249534;28;20905;-63
2021/11/15 03:45:07;;;;;;;20.33;12.43;;;8.50;99.90;;;;;;6245512;28;20479;-64
2021/11/15 03:48:11;;;;;;;24.67;14.17;;;8.50;99.90;;;;;;6249661;28;20510;-62
2021/11/15 03:51:15;;;;;;;27.20;14.43;;;8.50;99.90;;;;;;6249448;28;20478;-62
2021/11/15 03:54:19;;;;;;;24.97;14.93;;;8.40;99.90;;;;;;6249599;28;20477;-62
2021/11/15 03:57:22;;;;;;;27.47;14.73;;;8.50;99.90;;;;;;6249686;28;20478;-62
2021/11/15 04:00:28;;;;;;;24.77;14.40;;;8.50;99.90;;;;;;6250211;28;20529;-62
2021/11/15 04:03:33;;;;;;;32.67;16.57;;;8.40;99.90;;;;;;6249815;28;20568;-63
2021/11/15 04:06:39;;;;;;;22.67;16.93;;;8.40;99.90;;;;;;6249241;28;20483;-63
2021/11/15 04:09:44;;;;;;;25.53;17.23;;;8.40;99.90;;;;;;6249306;28;20553;-63
2021/11/15 04:12:49;;;;;;;23.20;15.63;;;8.40;99.90;;;;;;6248917;28;20473;-64
2021/11/15 04:15:54;;;;;;;25.13;16.47;;;8.50;99.90;;;;;;6249319;28;20486;-63
2021/11/15 04:19:00;;;;;;;24.50;15.30;;;8.40;99.90;;;;;;6249660;28;20521;-63
2021/11/15 04:22:03;;;;;;;20.80;16.37;;;8.50;99.90;;;;;;6249359;28;20540;-63
2021/11/15 04:25:10;;;;;;;29.13;16.57;;;8.40;99.90;;;;;;6248697;28;20475;-64
2021/11/15 04:28:13;;;;;;;23.53;16.13;;;8.50;99.90;;;;;;6249692;28;20954;-64
2021/11/15 04:31:16;;;;;;;26.73;17.10;;;8.50;99.90;;;;;;6248786;28;21477;-64
2021/11/15 04:34:19;;;;;;;24.33;17.10;;;8.50;99.90;;;;;;6249687;28;20467;-63
2021/11/15 04:37:22;;;;;;;26.87;15.70;;;8.60;99.90;;;;;;6248831;28;20487;-63
2021/11/15 04:40:27;;;;;;;21.10;15.43;;;8.60;99.90;;;;;;6249507;28;20447;-63
2021/11/15 04:43:31;;;;;;;28.87;16.47;;;8.60;99.90;;;;;;6252478;28;20479;-63
2021/11/15 04:46:34;;;;;;;27.27;17.53;;;8.70;99.90;;;;;;6253661;28;20477;-63
2021/11/15 04:49:37;;;;;;;25.57;16.10;;;8.70;99.90;;;;;;6249635;28;20470;-64
2021/11/15 04:52:41;;;;;;;26.23;16.77;;;8.70;99.90;;;;;;6254173;28;20868;-63
2021/11/15 04:55:46;;;;;;;28.40;17.63;;;8.70;99.90;;;;;;6253746;28;20990;-63
2021/11/15 04:58:50;;;;;;;26.93;18.20;;;8.70;99.90;;;;;;6254072;28;20462;-62
2021/11/15 05:01:53;;;;;;;32.20;19.80;;;8.70;99.90;;;;;;6253651;28;20471;-62
2021/11/15 05:04:56;;;;;;;33.40;19.20;;;8.60;99.90;;;;;;6253270;28;20471;-63
2021/11/15 05:07:59;;;;;;;34.70;19.93;;;8.50;99.90;;;;;;6253395;28;20966;-63
2021/11/15 05:11:04;;;;;;;34.03;20.30;;;8.50;99.90;;;;;;6253667;28;20463;-63
2021/11/15 05:14:07;;;;;;;32.63;20.40;;;8.40;99.90;;;;;;6253214;28;20959;-63
2021/11/15 05:17:10;;;;;;;32.10;18.73;;;8.40;99.90;;;;;;6253270;28;20478;-63
2021/11/15 05:20:14;;;;;;;37.10;19.37;;;8.30;99.90;;;;;;6253472;28;20482;-63
2021/11/15 05:23:18;;;;;;;35.23;21.33;;;8.30;99.90;;;;;;6253382;28;20548;-63
2021/11/15 05:26:23;;;;;;;30.30;18.90;;;8.30;99.90;;;;;;6252893;28;20490;-63
2021/11/15 05:29:26;;;;;;;36.13;19.80;;;8.30;99.90;;;;;;6253011;28;20967;-63
2021/11/15 05:32:30;;;;;;;34.40;19.83;;;8.30;99.90;;;;;;6252751;28;20470;-62
2021/11/15 05:35:33;;;;;;;36.93;20.07;;;8.30;99.90;;;;;;6252785;28;20479;-63
2021/11/15 05:38:36;;;;;;;33.40;20.57;;;8.30;99.90;;;;;;6251955;28;20475;-63
2021/11/15 05:41:41;;;;;;;35.30;18.00;;;8.40;99.90;;;;;;6252382;28;20477;-63
2021/11/15 05:44:44;;;;;;;34.97;19.00;;;8.40;99.90;;;;;;6251797;28;20828;-63
2021/11/15 05:47:48;;;;;;;32.80;17.87;;;8.40;99.90;;;;;;6252342;28;20545;-63
2021/11/15 05:50:51;;;;;;;28.73;16.40;;;8.50;99.90;;;;;;6252561;28;20478;-63
2021/11/15 05:53:55;;;;;;;29.30;18.07;;;8.40;99.90;;;;;;6247334;28;20510;-63
2021/11/15 05:57:00;;;;;;;32.47;17.47;;;8.50;99.90;;;;;;6251004;28;20784;-63
2021/11/15 06:00:06;;;;;;;33.73;18.10;;;8.50;99.90;;;;;;6250925;28;20479;-63
2021/11/15 06:03:10;;;;;;;32.50;17.70;;;8.50;99.90;;;;;;6250920;28;20475;-63
2021/11/15 06:06:13;;;;;;;27.90;18.03;;;8.50;99.90;;;;;;6252291;28;20568;-63
2021/11/15 06:09:16;;;;;;;27.23;17.80;;;8.50;99.90;;;;;;6250681;28;20474;-62
2021/11/15 06:12:20;;;;;;;30.63;18.93;;;8.50;99.90;;;;;;6251860;28;20478;-63
2021/11/15 06:15:24;;;;;;;35.90;17.60;;;8.50;99.90;;;;;;6252003;28;20483;-62
2021/11/15 06:18:27;;;;;;;36.93;21.07;;;8.60;99.90;;;;;;6251901;28;20794;-62
2021/11/15 06:21:30;;;;;;;27.87;17.00;;;8.60;99.90;;;;;;6250106;28;20471;-63
2021/11/15 06:24:34;;;;;;;28.57;17.77;;;8.70;99.90;;;;;;6249455;28;20486;-62
2021/11/15 06:27:39;;;;;;;30.77;17.23;;;8.70;99.90;;;;;;6249680;28;20482;-62
2021/11/15 06:30:42;;;;;;;31.20;15.83;;;8.70;99.90;;;;;;6249825;28;20487;-62
2021/11/15 06:33:49;;;;;;;24.77;13.67;;;8.70;99.90;;;;;;6249821;28;20478;-62
2021/11/15 06:36:52;;;;;;;19.87;13.87;;;8.80;99.90;;;;;;6250568;28;20812;-63
2021/11/15 06:39:55;;;;;;;26.67;14.50;;;8.70;99.90;;;;;;6251172;28;20578;-63
2021/11/15 06:43:00;;;;;;;24.50;13.83;;;8.70;99.90;;;;;;6251334;28;20470;-63
2021/11/15 06:46:03;;;;;;;22.87;14.27;;;8.80;99.90;;;;;;6250624;28;21014;-60
2021/11/15 06:49:06;;;;;;;25.67;15.17;;;8.80;99.90;;;;;;6250794;28;20495;-64
2021/11/15 06:52:12;;;;;;;22.63;14.00;;;8.80;99.90;;;;;;6251119;28;20963;-63
2021/11/15 06:55:17;;;;;;;20.60;13.87;;;8.80;99.90;;;;;;6250371;28;20466;-63
2021/11/15 06:58:25;;;;;;;29.60;16.30;;;8.80;99.90;;;;;;6250375;28;20481;-61
2021/11/15 07:01:28;;;;;;;24.70;16.90;;;8.80;99.90;;;;;;6250463;28;20451;-61
2021/11/15 07:04:32;;;;;;;24.73;16.30;;;8.90;99.90;;;;;;6250850;28;20485;-63
2021/11/15 07:07:37;;;;;;;23.60;15.57;;;8.90;99.90;;;;;;6249690;28;20927;-62
2021/11/15 07:10:40;;;;;;;24.30;14.90;;;8.90;99.90;;;;;;6250824;28;20443;-61
2021/11/15 07:13:45;;;;;;;22.77;15.90;;;9.00;99.90;;;;;;6250299;28;20443;-61
2021/11/15 07:16:48;;;;;;;24.23;14.93;;;9.00;99.90;;;;;;6250436;28;20459;-61
2021/11/15 07:19:51;;;;;;;26.40;14.00;;;9.00;99.90;;;;;;6250634;28;20468;-61
2021/11/15 07:23:10;;;;;;;20.53;14.90;;;9.00;99.90;;;;;;6250287;28;20971;-61
2021/11/15 07:26:13;;;;;;;26.13;14.30;;;9.20;99.90;;;;;;6250138;28;20473;-62
2021/11/15 07:29:23;;;;;;;25.30;15.00;;;9.20;99.90;;;;;;6249990;28;20479;-63
2021/11/15 07:32:26;;;;;;;26.70;16.43;;;9.30;99.90;;;;;;6250113;28;20471;-62
2021/11/15 07:35:30;;;;;;;24.73;15.20;;;9.30;99.90;;;;;;6249660;28;20851;-62
2021/11/15 07:38:33;;;;;;;27.93;16.27;;;9.40;99.90;;;;;;6250262;28;20475;-64
2021/11/15 07:41:36;;;;;;;24.30;15.97;;;9.40;99.90;;;;;;6249894;28;20478;-61
2021/11/15 07:44:41;;;;;;;28.50;16.90;;;9.50;99.90;;;;;;6249699;28;20482;-62
2021/11/15 07:47:44;;;;;;;25.93;16.73;;;9.40;99.90;;;;;;6249406;28;20474;-62
2021/11/15 07:50:48;;;;;;;26.27;16.00;;;9.40;99.90;;;;;;6249661;28;20558;-62
2021/11/15 07:53:51;;;;;;;24.10;15.10;;;9.40;99.90;;;;;;6249682;28;20483;-62
2021/11/15 07:56:54;;;;;;;21.67;14.90;;;9.50;99.90;;;;;;6249360;28;20482;-62
2021/11/15 07:59:59;;;;;;;22.47;14.63;;;9.70;99.90;;;;;;6249308;28;20498;-62
2021/11/15 08:03:02;;;;;;;20.53;14.03;;;9.80;99.90;;;;;;6243804;28;20471;-63
2021/11/15 08:06:09;;;;;;;20.10;14.77;;;10.10;99.90;;;;;;6235306;28;20494;-62
2021/11/15 08:09:12;;;;;;;17.50;13.47;;;10.20;99.90;;;;;;6241397;28;20475;-64
2021/11/15 08:12:17;;;;;;;17.00;12.70;;;10.30;99.90;;;;;;6243554;28;20467;-63
2021/11/15 08:15:23;;;;;;;23.83;16.50;;;10.50;99.90;;;;;;6224812;28;20956;-63
2021/11/15 08:18:26;;;;;;;17.80;12.70;;;10.50;99.90;;;;;;6227885;28;20818;-65
2021/11/15 08:21:30;;;;;;;23.37;14.70;;;10.50;99.90;;;;;;6241547;28;20470;-62
2021/11/15 08:25:12;;;;;;;17.07;12.33;;;10.50;99.90;;;;;;6254202;28;20478;-63
2021/11/15 08:28:15;;;;;;;16.70;12.27;;;10.40;99.90;;;;;;6205312;28;20545;-63
2021/11/15 08:31:20;;;;;;;19.77;12.73;;;10.40;99.90;;;;;;6205140;28;20484;-62
2021/11/15 08:34:23;;;;;;;22.90;14.97;;;10.30;99.90;;;;;;6205240;28;20551;-64
2021/11/15 08:37:27;;;;;;;20.70;14.40;;;10.30;99.90;;;;;;6202111;28;20454;-63
2021/11/15 08:40:30;;;;;;;16.80;13.37;;;10.30;99.90;;;;;;6180588;28;20500;-66
2021/11/15 08:43:35;;;;;;;19.77;14.97;;;10.40;99.90;;;;;;6180535;28;20525;-64
2021/11/15 08:46:40;;;;;;;16.50;13.80;;;10.40;99.90;;;;;;6180002;28;20889;-64
2021/11/15 08:49:43;;;;;;;17.10;14.07;;;10.50;99.90;;;;;;6180568;28;20438;-64
2021/11/15 08:52:47;;;;;;;15.60;13.97;;;10.50;99.90;;;;;;6180511;28;20510;-63
2021/11/15 08:55:50;;;;;;;13.60;11.43;;;10.70;99.90;;;;;;6180515;28;20477;-64
2021/11/15 08:58:53;;;;;;;16.40;13.17;;;10.80;99.90;;;;;;6180062;28;20532;-63
2021/11/15 09:01:59;;;;;;;16.23;13.90;;;10.90;99.90;;;;;;6179917;28;20481;-63
2021/11/15 09:05:02;;;;;;;17.27;14.83;;;11.00;99.90;;;;;;6192997;28;20483;-64
2021/11/15 09:08:06;;;;;;;16.00;14.37;;;11.00;99.90;;;;;;6195828;28;20473;-64
2021/11/15 09:11:10;;;;;;;15.70;13.83;;;11.00;99.90;;;;;;6203945;28;20472;-63
2021/11/15 09:14:13;;;;;;;15.30;13.70;;;11.00;99.90;;;;;;6204062;28;20783;-63
2021/11/15 09:17:18;;;;;;;21.67;15.30;;;11.00;99.90;;;;;;6203827;28;20480;-63
2021/11/15 09:20:21;;;;;;;20.13;14.30;;;10.90;99.90;;;;;;6204244;28;20480;-65
2021/11/15 09:23:25;;;;;;;19.10;14.27;;;10.90;99.90;;;;;;6203912;28;20480;-63
2021/11/15 09:26:28;;;;;;;22.80;17.37;;;10.60;99.90;;;;;;6226408;28;20485;-63
2021/11/15 09:29:31;;;;;;;28.27;17.90;;;10.50;99.90;;;;;;6251301;28;20474;-64
2021/11/15 09:32:36;;;;;;;21.17;16.50;;;10.50;99.90;;;;;;6252192;28;20974;-63
2021/11/15 09:35:44;;;;;;;18.33;16.27;;;10.50;99.90;;;;;;6252033;28;20788;-61
2021/11/15 09:38:47;;;;;;;25.77;18.10;;;10.50;99.90;;;;;;6240526;28;20472;-63
2021/11/15 09:41:50;;;;;;;25.00;17.47;;;10.40;99.90;;;;;;6226250;28;20487;-64
2021/11/15 09:44:54;;;;;;;20.50;16.80;;;10.20;99.90;;;;;;6225568;28;20476;-62
2021/11/15 09:47:59;;;;;;;21.70;17.40;;;10.20;99.90;;;;;;6225656;28;20476;-62
2021/11/15 09:51:03;;;;;;;23.60;16.63;;;10.10;99.90;;;;;;6225294;28;20487;-62
2021/11/15 09:54:07;;;;;;;23.63;17.87;;;10.20;99.90;;;;;;6227024;28;20478;-63
2021/11/15 09:57:12;;;;;;;23.50;17.97;;;10.30;99.90;;;;;;6227054;28;20469;-62
2021/11/15 10:00:20;;;;;;;28.53;21.00;;;10.30;99.90;;;;;;6227634;28;20468;-63
2021/11/15 10:03:25;;;;;;;22.70;16.27;;;10.30;99.90;;;;;;6227195;28;20480;-63
2021/11/15 10:06:29;;;;;;;21.63;18.13;;;10.40;99.90;;;;;;6227463;28;20947;-62
2021/11/15 10:09:34;;;;;;;19.93;16.20;;;10.40;99.90;;;;;;6226843;28;20487;-62
2021/11/15 10:12:37;;;;;;;21.33;17.17;;;10.40;99.90;;;;;;6229685;28;20471;-63
2021/11/15 10:15:46;;;;;;;21.37;18.97;;;10.40;99.90;;;;;;6251697;28;20475;-63
2021/11/15 10:18:54;;;;;;;20.13;16.17;;;10.50;99.90;;;;;;6251316;28;20564;-63
2021/11/15 10:21:59;;;;;;;27.00;17.87;;;10.60;99.90;;;;;;6251762;28;20475;-63
2021/11/15 10:25:04;;;;;;;24.83;18.40;;;10.70;99.90;;;;;;6251105;28;20487;-62
2021/11/15 10:28:09;;;;;;;23.47;18.20;;;10.80;99.90;;;;;;6251155;28;20483;-62
2021/11/15 10:31:42;;;;;;;26.03;18.13;;;10.80;99.90;;;;;;6250900;28;20482;-63
2021/11/15 10:34:49;;;;;;;19.27;15.90;;;10.90;99.90;;;;;;6227871;28;20474;-63
2021/11/15 10:37:53;;;;;;;20.27;16.90;;;11.00;99.90;;;;;;6250770;28;20479;-64
2021/11/15 10:41:12;;;;;;;23.63;18.57;;;11.00;99.90;;;;;;6250931;28;20475;-63
2021/11/15 10:44:19;;;;;;;26.27;18.57;;;11.10;99.90;;;;;;6250280;28;20474;-63
2021/11/15 10:47:31;;;;;;;24.87;17.80;;;11.20;99.90;;;;;;6249966;28;20486;-63
2021/11/15 10:50:44;;;;;;;21.57;17.50;;;11.20;99.90;;;;;;6250769;28;20467;-64
2021/11/15 10:53:56;;;;;;;23.83;17.10;;;11.30;99.90;;;;;;6250589;28;20474;-63
2021/11/15 10:57:18;;;;;;;23.03;19.10;;;11.40;99.90;;;;;;6251177;28;20951;-63
2021/11/15 11:00:40;;;;;;;19.53;17.43;;;11.50;99.90;;;;;;6251027;28;20475;-64
2021/11/15 11:03:43;;;;;;;19.50;17.37;;;11.50;99.90;;;;;;6249207;28;20566;-64
2021/11/15 11:06:59;;;;;;;23.30;17.47;;;11.50;99.90;;;;;;6226478;28;20476;-62
2021/11/15 11:10:03;;;;;;;24.23;18.30;;;11.60;99.90;;;;;;6226133;28;20472;-63
2021/11/15 11:13:06;;;;;;;23.43;18.00;;;11.70;99.90;;;;;;6241633;28;20479;-63
2021/11/15 11:16:10;;;;;;;21.50;17.20;;;11.70;99.90;;;;;;6248428;28;20486;-62
2021/11/15 11:19:18;;;;;;;26.57;17.83;;;11.70;99.90;;;;;;6251322;28;20494;-61
2021/11/15 11:22:38;;;;;;;22.83;18.10;;;11.60;99.90;;;;;;6250892;28;20475;-62
2021/11/15 11:25:41;;;;;;;21.83;17.73;;;11.70;99.90;;;;;;6250464;28;20530;-64
2021/11/15 11:28:54;;;;;;;23.50;19.13;;;11.70;99.90;;;;;;6250466;28;20790;-63
2021/11/15 11:32:00;;;;;;;25.53;18.37;;;11.80;99.90;;;;;;6251860;28;20467;-62
2021/11/15 11:35:05;;;;;;;21.63;19.20;;;11.90;99.90;;;;;;6259911;28;20471;-61
2021/11/15 11:38:10;;;;;;;22.10;19.00;;;11.90;99.90;;;;;;6257951;28;20471;-61
2021/11/15 11:41:14;;;;;;;26.17;20.67;;;11.90;99.90;;;;;;6258207;28;20479;-61
2021/11/15 11:44:18;;;;;;;25.33;21.20;;;11.70;99.90;;;;;;6257286;28;20814;-61
2021/11/15 11:47:27;;;;;;;24.07;19.37;;;11.60;99.90;;;;;;6258064;28;20470;-62
2021/11/15 11:50:31;;;;;;;25.33;20.10;;;11.70;99.90;;;;;;6239280;28;20481;-61
2021/11/15 11:53:37;;;;;;;24.13;18.70;;;11.80;99.90;;;;;;6243407;28;20467;-62
2021/11/15 11:56:40;;;;;;;24.23;18.80;;;11.90;99.90;;;;;;6250230;28;20472;-63
2021/11/15 12:00:04;;;;;;;24.73;20.40;;;11.90;99.90;;;;;;6229556;28;20481;-60
2021/11/15 12:03:08;;;;;;;25.30;21.00;;;12.00;99.90;;;;;;6230132;28;20491;-63
2021/11/15 12:06:29;;;;;;;22.43;19.87;;;11.90;99.90;;;;;;6237863;28;20983;-62
2021/11/15 12:09:47;;;;;;;26.07;20.60;;;11.90;99.90;;;;;;6229502;28;20819;-63
2021/11/15 12:12:59;;;;;;;26.07;20.80;;;11.90;99.90;;;;;;6242582;28;20978;-62
2021/11/15 12:16:04;;;;;;;26.63;21.77;;;11.80;99.90;;;;;;6254493;28;20482;-62
2021/11/15 12:19:08;;;;;;;29.23;21.10;;;11.60;99.90;;;;;;6254057;28;20975;-63
2021/11/15 12:22:12;;;;;;;23.80;21.13;;;11.50;99.90;;;;;;6235697;28;20979;-63
2021/11/15 12:25:20;;;;;;;24.63;20.50;;;11.50;99.90;;;;;;6229495;28;20844;-66
2021/11/15 12:28:29;;;;;;;29.33;22.10;;;11.40;99.90;;;;;;6230082;28;20482;-64
2021/11/15 12:31:44;;;;;;;28.43;22.30;;;11.30;99.90;;;;;;6229937;28;20444;-65
2021/11/15 12:35:00;;;;;;;27.00;20.03;;;11.30;99.90;;;;;;6230193;28;20544;-66
2021/11/15 12:38:03;;;;;;;25.17;20.87;;;11.20;99.90;;;;;;6229472;28;20483;-64
2021/11/15 12:41:35;;;;;;;25.80;21.73;;;11.20;99.90;;;;;;6229651;28;20468;-64
2021/11/15 12:44:38;;;;;;;28.50;20.80;;;11.00;99.90;;;;;;6229302;28;20487;-64
2021/11/15 12:47:44;;;;;;;27.63;22.53;;;11.00;99.90;;;;;;6229056;28;20467;-62
2021/11/15 12:50:52;;;;;;;28.30;22.60;;;10.90;99.90;;;;;;6247980;28;20943;-63
2021/11/15 12:53:55;;;;;;;28.63;21.10;;;10.90;99.90;;;;;;6253612;28;20482;-64
2021/11/15 12:57:00;;;;;;;26.53;20.90;;;10.90;99.90;;;;;;6243686;28;20472;-65
2021/11/15 13:00:12;;;;;;;28.13;20.83;;;10.90;99.90;;;;;;6228869;28;20468;-64
2021/11/15 13:03:17;;;;;;;25.70;20.40;;;11.00;99.90;;;;;;6228636;28;20476;-64
2021/11/15 13:06:22;;;;;;;25.83;19.77;;;11.10;99.90;;;;;;6251479;28;20796;-64
2021/11/15 13:09:25;;;;;;;25.07;19.80;;;11.10;99.90;;;;;;6253220;28;20478;-62
2021/11/15 13:12:34;;;;;;;24.33;20.97;;;11.20;99.90;;;;;;6242260;28;20960;-62
2021/11/15 13:15:37;;;;;;;21.67;19.37;;;11.20;99.90;;;;;;6227831;28;20994;-64
2021/11/15 13:18:41;;;;;;;25.20;21.87;;;11.30;99.90;;;;;;6228244;28;20472;-65
2021/11/15 13:21:45;;;;;;;24.53;19.30;;;11.40;99.90;;;;;;6227896;28;20541;-67
2021/11/15 13:24:49;;;;;;;25.83;20.93;;;11.40;99.90;;;;;;6219398;28;20464;-65
2021/11/15 13:27:54;;;;;;;30.57;22.00;;;11.50;99.90;;;;;;6227682;28;20480;-64
2021/11/15 13:30:58;;;;;;;26.73;20.90;;;11.60;99.90;;;;;;6228277;28;20956;-64
2021/11/15 13:34:02;;;;;;;25.03;21.50;;;11.60;99.90;;;;;;6227034;28;21003;-65
2021/11/15 13:37:06;;;;;;;25.00;19.77;;;11.60;99.90;;;;;;6226484;28;20498;-64
2021/11/15 13:40:10;;;;;;;29.83;21.13;;;11.50;99.90;;;;;;6226834;28;20483;-64
2021/11/15 13:43:19;;;;;;;28.27;21.40;;;11.40;99.90;;;;;;6227708;28;20483;-65
2021/11/15 13:46:23;;;;;;;29.10;20.40;;;11.40;99.90;;;;;;6235051;28;20486;-67
2021/11/15 13:49:29;;;;;;;29.07;21.70;;;11.40;99.90;;;;;;6246844;28;20486;-64
2021/11/15 13:52:32;;;;;;;28.97;22.80;;;11.40;99.90;;;;;;6252042;28;20431;-63
2021/11/15 13:55:35;;;;;;;26.20;22.53;;;11.30;99.90;;;;;;6252181;28;20538;-63
2021/11/15 13:58:40;;;;;;;26.17;21.57;;;11.40;99.90;;;;;;6252211;28;20442;-64
2021/11/15 14:01:44;;;;;;;28.30;22.27;;;11.40;99.90;;;;;;6251587;28;20927;-63
2021/11/15 14:04:47;;;;;;;30.50;22.13;;;11.50;99.90;;;;;;6263346;28;20442;-65
2021/11/15 14:07:51;;;;;;;26.50;21.30;;;11.50;99.90;;;;;;6276664;28;20467;-63
2021/11/15 14:10:56;;;;;;;25.03;22.07;;;11.60;99.90;;;;;;6276896;28;20477;-63
2021/11/15 14:14:01;;;;;;;27.30;21.07;;;11.60;99.90;;;;;;6252047;28;20471;-63
2021/11/15 14:17:04;;;;;;;25.10;20.30;;;11.70;99.90;;;;;;6249209;28;20475;-64
2021/11/15 14:20:08;;;;;;;27.10;22.90;;;11.80;99.90;;;;;;6249700;28;20471;-63
2021/11/15 14:23:11;;;;;;;23.80;20.60;;;11.70;99.90;;;;;;6249756;28;20474;-64
2021/11/15 14:26:16;;;;;;;27.17;22.43;;;11.60;99.90;;;;;;6245192;28;20487;-65
2021/11/15 14:29:21;;;;;;;24.97;19.70;;;11.50;99.90;;;;;;6250162;28;20485;-64
2021/11/15 14:32:25;;;;;;;25.47;22.33;;;11.50;99.90;;;;;;6251394;28;20558;-65
2021/11/15 14:35:28;;;;;;;30.20;23.30;;;11.40;99.90;;;;;;6249078;28;20471;-64
2021/11/15 14:38:32;;;;;;;29.67;21.53;;;11.40;99.90;;;;;;6249188;28;20467;-66
2021/11/15 14:41:35;;;;;;;27.70;22.23;;;11.40;99.90;;;;;;6249751;28;20881;-62
2021/11/15 14:44:42;;;;;;;29.37;23.17;;;11.40;99.90;;;;;;6248963;28;20470;-63
2021/11/15 14:47:46;;;;;;;29.37;21.40;;;11.40;99.90;;;;;;6244465;28;20807;-63
2021/11/15 14:50:49;;;;;;;26.77;22.83;;;11.30;99.90;;;;;;6243572;28;20471;-61
2021/11/15 14:53:52;;;;;;;29.63;23.53;;;11.20;99.90;;;;;;6249115;28;20998;-64
2021/11/15 14:56:56;;;;;;;32.13;23.27;;;11.20;99.90;;;;;;6242717;28;20482;-65
2021/11/15 15:00:00;;;;;;;30.07;24.03;;;11.20;99.90;;;;;;6230312;28;20822;-64
2021/11/15 15:03:04;;;;;;;30.53;22.53;;;11.20;99.90;;;;;;6227997;28;20955;-65
2021/11/15 15:06:07;;;;;;;29.20;25.80;;;11.10;99.90;;;;;;6270660;28;20485;-64
2021/11/15 15:09:10;;;;;;;30.20;23.90;;;11.10;99.90;;;;;;6268117;28;20478;-65
2021/11/15 15:12:15;;;;;;;29.70;23.77;;;11.10;99.90;;;;;;6247579;28;20482;-63
2021/11/15 15:15:20;;;;;;;36.53;28.33;;;11.00;99.90;;;;;;6247764;28;20811;-63
2021/11/15 15:18:26;;;;;;;32.80;26.80;;;11.00;99.90;;;;;;6248374;28;20463;-66
2021/11/15 15:21:29;;;;;;;29.77;24.27;;;10.90;99.90;;;;;;6248667;28;20479;-64
2021/11/15 15:24:33;;;;;;;33.03;25.87;;;10.90;99.90;;;;;;6247889;28;20471;-64
2021/11/15 15:27:37;;;;;;;28.07;23.67;;;10.90;99.90;;;;;;6247739;28;20482;-62
2021/11/15 15:30:45;;;;;;;30.60;25.10;;;10.70;99.90;;;;;;6227666;28;20476;-62
2021/11/15 15:33:49;;;;;;;34.33;26.90;;;10.70;99.90;;;;;;6223798;28;20466;-63
2021/11/15 15:36:55;;;;;;;34.87;24.77;;;10.50;99.90;;;;;;6222880;28;21007;-63
2021/11/15 15:39:58;;;;;;;34.07;24.87;;;10.40;99.90;;;;;;6222631;28;20499;-63
2021/11/15 15:43:01;;;;;;;32.97;25.70;;;10.20;99.90;;;;;;6222648;28;20487;-63
2021/11/15 15:46:06;;;;;;;31.40;24.60;;;10.20;99.90;;;;;;6222417;28;20483;-63